Flight Track Log - Related Links

Times and Time Zones

All times are in EDT time to prevent confusion due to time zone crossing. See the GJS3657 flight status page for this flight to view local times or setup timezone preferences in your user account.

Time Position Orientation Groundspeed Altitude Reporting Facility
EDT Latitude Longitude Course Direction KTS MPH feet Rate Location/Type
Mon 07:04:43 AM 42.7256 -73.8053 179° South 159 183 1,300  Level Boston Center
Mon 07:05:13 AM 42.7028 -73.8047 179° South 167 192 1,900 1,912 Climbing Boston Center
Mon 07:06:14 AM 42.7125 -73.8586 284° West 211 243 4,200 2,071 Climbing Boston Center
Mon 07:07:06 AM 42.7514 -73.9047 319° Northwest 235 270 5,800 2,411 Climbing Boston Center
Mon 07:08:06 AM 42.8069 -73.9628 323° Northwest 241 277 8,700 2,300 Climbing Boston Center
Mon 07:09:06 AM 42.8728 -74.0322 322° Northwest 254 292 10,400 1,750 Climbing Boston Center
Mon 07:10:06 AM 42.9364 -74.0964 324° Northwest 290 334 12,200 2,000 Climbing Boston Center
Mon 07:11:06 AM 43.0186 -74.1808 323° Northwest 326 375 14,400 1,950 Climbing Boston Center
Mon 07:12:06 AM 43.0906 -74.2456 327° Northwest 343 395 16,100 1,850 Climbing Boston Center
Mon 07:13:06 AM 43.1808 -74.3364 324° Northwest 358 412 18,100 1,835 Climbing Boston Center
Mon 07:14:07 AM 43.2583 -74.4244 320° Northwest 358 412 19,800 1,700 Climbing Boston Center
Mon 07:15:06 AM 43.3364 -74.5039 323° Northwest 370 426 21,500 1,664 Climbing Boston Center
Mon 07:16:06 AM 43.4222 -74.5842 326° Northwest 375 432 23,100 1,400 Climbing Boston Center
Mon 07:17:06 AM 43.4833 -74.6578 319° Northwest 380 437 24,300 1,350 Climbing Boston Center
Mon 07:18:06 AM 43.4656 -74.8172 261° West 317 365 25,800 1,398 Climbing Boston Center
Mon 07:19:19 AM 43.4328 -74.9819 255° West 337 388 27,400 1,353 Climbing Boston Center
Mon 07:20:19 AM 43.4050 -75.1150 254° West 358 412 28,800 1,412 Climbing Boston Center
Mon 07:21:18 AM 43.3719 -75.2681 254° West 377 434 30,200 1,100 Climbing Boston Center
Mon 07:22:19 AM 43.3414 -75.4036 253° West 372 428 31,000 800 Climbing Boston Center
Mon 07:23:18 AM 43.3131 -75.5336 253° West 377 434 31,800 807 Climbing Boston Center
Mon 07:24:18 AM 43.2822 -75.6661 252° West 377 434 32,600 700 Climbing Boston Center
Mon 07:25:18 AM 43.2603 -75.7733 254° West 377 434 33,200 800 Climbing Boston Center
Mon 07:26:18 AM 43.2222 -75.9364 252° West 377 434 34,200 863 Climbing Boston Center
Mon 07:27:58 AM 43.1719 -76.1617 253° West 372 428 35,500 788 Climbing Cleveland Center
Mon 07:28:58 AM 43.1606 -76.2992 264° West 372 428 36,300 800 Climbing Cleveland Center
Mon 07:29:58 AM 43.1589 -76.4303 269° West 361 415 37,100 750 Climbing Cleveland Center
Mon 07:30:58 AM 43.1617 -76.5669 272° West 361 415 37,800 450 Climbing Cleveland Center
Mon 07:31:58 AM 43.1600 -76.7008 269° West 361 415 38,000 100 Climbing Cleveland Center
Mon 07:32:58 AM 43.1597 -76.8203 270° West 355 409 38,000  Level Cleveland Center
Mon 07:33:58 AM 43.1600 -76.9600 270° West 360 414 38,000  Level Cleveland Center
Mon 07:34:58 AM 43.1581 -77.1022 269° West 365 420 38,000  Level Cleveland Center
Mon 07:35:58 AM 43.1581 -77.2361 270° West 365 420 38,000  Level Cleveland Center
Mon 07:36:58 AM 43.1556 -77.3700 269° West 365 420 38,000  Level Cleveland Center
Mon 07:37:58 AM 43.1550 -77.5039 270° West 365 420 38,000  Level Cleveland Center
Mon 07:38:58 AM 43.1522 -77.6406 268° West 365 420 38,000  Level Cleveland Center
Mon 07:39:58 AM 43.1514 -77.7744 270° West 365 420 38,000  Level Cleveland Center
Mon 07:40:58 AM 43.1483 -77.9111 268° West 365 420 38,000  Level Cleveland Center
Mon 07:41:58 AM 43.1472 -78.0478 269° West 365 420 38,000  Level Cleveland Center
Mon 07:42:58 AM 43.1461 -78.1872 269° West 365 420 38,000  Level Cleveland Center
Mon 07:43:58 AM 43.1447 -78.3239 269° West 365 420 38,000  Level Cleveland Center
Mon 07:44:58 AM 43.1411 -78.4664 268° West 370 426 38,000  Level Cleveland Center
Mon 07:45:58 AM 43.1372 -78.6031 268° West 370 426 38,000  Level Cleveland Center
Mon 07:46:58 AM 43.1333 -78.7456 268° West 370 426 38,000  Level Cleveland Center
Mon 07:47:58 AM 43.1292 -78.8822 268° West 370 426 38,000  Level Cleveland Center
Mon 07:48:29 AM 43.1167 -78.9500 256° West 370 426 38,000  Level Toronto Center
Mon 07:49:29 AM 43.1167 -79.0833 270° West 370 426 38,000  Level Toronto Center
Mon 07:50:29 AM 43.1000 -79.2167 260° West 370 426 38,000  Level Toronto Center
Mon 07:51:29 AM 43.1000 -79.3667 270° West 380 437 38,000  Level Toronto Center
Mon 07:52:29 AM 43.1000 -79.5167 270° West 380 437 38,000  Level Toronto Center
Mon 07:53:29 AM 43.1000 -79.6500 270° West 380 437 38,000  Level Toronto Center
Mon 07:54:29 AM 43.0833 -79.8167 262° West 380 437 38,000  Level Toronto Center
Mon 07:55:29 AM 43.0833 -79.9500 270° West 380 437 38,000  Level Toronto Center
Mon 07:56:29 AM 43.0833 -80.0833 270° West 370 426 38,000  Level Toronto Center
Mon 07:57:29 AM 43.0667 -80.2333 261° West 370 426 38,000  Level Toronto Center
Mon 07:58:29 AM 43.0667 -80.3667 270° West 360 414 38,000  Level Toronto Center
Mon 07:59:29 AM 43.0667 -80.5000 270° West 360 414 38,000  Level Toronto Center
Mon 08:00:29 AM 43.0500 -80.6333 260° West 360 414 38,000  Level Toronto Center
Mon 08:01:29 AM 43.0500 -80.7667 270° West 360 414 38,000  Level Toronto Center
Mon 08:02:29 AM 43.0333 -80.9167 261° West 350 403 38,000  Level Toronto Center
Mon 08:03:29 AM 43.0167 -81.0500 260° West 350 403 38,000  Level Toronto Center
Mon 08:04:29 AM 43.0167 -81.1833 270° West 360 414 38,000  Level Toronto Center
Mon 08:05:29 AM 43.0167 -81.3167 270° West 360 414 38,000  Level Toronto Center
Mon 08:06:29 AM 43.0167 -81.4500 270° West 360 414 38,000  Level Toronto Center
Mon 08:07:29 AM 43.0167 -81.6000 270° West 360 414 38,000  Level Toronto Center
Mon 08:08:29 AM 43.0167 -81.7333 270° West 360 414 38,000  Level Toronto Center
Mon 08:09:29 AM 43.0167 -81.8667 270° West 360 414 38,000  Level Toronto Center
Mon 08:10:29 AM 43.0000 -82.0000 260° West 360 414 38,000  Level Toronto Center
Mon 08:11:29 AM 43.0000 -82.1333 270° West 360 414 38,000  Level Toronto Center
Mon 08:12:29 AM 43.0000 -82.2833 270° West 370 426 38,000  Level Toronto Center
Mon 08:13:29 AM 43.0000 -82.4167 270° West 360 414 38,000  Level Toronto Center
Mon 08:14:29 AM 43.0000 -82.5500 270° West 360 414 38,000  Level Toronto Center
Mon 08:15:29 AM 42.9833 -82.6833 260° West 350 403 38,000  Level Toronto Center
Mon 08:15:47 AM 43.0011 -82.7181 305° West 359 413 38,000  Level Cleveland Center
Mon 08:16:47 AM 42.9983 -82.8542 268° West 359 413 38,000  Level Cleveland Center
Mon 08:17:47 AM 42.9936 -82.9844 267° West 359 413 38,000  Level Cleveland Center
Mon 08:18:47 AM 42.9889 -83.1178 267° West 359 413 38,000  Level Cleveland Center
Mon 08:19:47 AM 42.9858 -83.2539 268° West 359 413 38,000  Level Cleveland Center
Mon 08:20:47 AM 42.9803 -83.3928 267° West 365 420 38,000  Level Cleveland Center
Mon 08:21:47 AM 42.9750 -83.5286 267° West 365 420 38,000  Level Cleveland Center
Mon 08:22:47 AM 42.9692 -83.6675 267° West 365 420 38,000 -100 Level Cleveland Center
Mon 08:23:47 AM 42.9592 -83.8033 264° West 365 420 37,800 -600 Descending Cleveland Center
Mon 08:24:47 AM 42.9472 -83.9361 263° West 365 420 36,800 -1,000 Descending Cleveland Center
Mon 08:25:47 AM 42.9353 -84.0572 262° West 348 400 35,800 -1,000 Descending Cleveland Center
Mon 08:26:47 AM 42.9250 -84.1844 264° West 342 394 34,800 -896 Descending Cleveland Center
Mon 08:28:01 AM 42.9089 -84.3444 262° West 352 405 33,800 -1,015 Descending Chicago Center
Mon 08:29:03 AM 42.8950 -84.4811 262° West 360 414 32,500 -871 Descending Chicago Center
Mon 08:30:05 AM 42.8811 -84.6214 262° West 370 426 32,000 -242 Descending Chicago Center
Mon 08:31:07 AM 42.8642 -84.7894 262° West 374 430 32,000  Level Chicago Center
Mon 08:32:09 AM 42.8483 -84.9311 261° West 377 434 32,000  Level Chicago Center
Mon 08:33:11 AM 42.8339 -85.0703 262° West 374 430 32,000 -194 Level Chicago Center
Mon 08:34:13 AM 42.8181 -85.2117 261° West 377 434 31,600 -672 Descending Chicago Center
Mon 08:35:16 AM 42.8025 -85.3581 262° West 387 445 30,600 -960 Descending Chicago Center
Mon 08:36:18 AM 42.7864 -85.5044 262° West 391 450 29,600 -1,306 Descending Chicago Center
Mon 08:37:20 AM 42.7586 -85.6544 256° West 406 467 27,900 -2,323 Descending Chicago Center
Mon 08:38:22 AM 42.7272 -85.8328 257° West 403 464 24,800 -2,710 Descending Chicago Center
Mon 08:39:24 AM 42.7011 -85.9747 256° West 389 448 22,300 -1,887 Descending Chicago Center
Mon 08:40:26 AM 42.6761 -86.1133 256° West 377 434 20,900 -1,113 Descending Chicago Center
Mon 08:41:28 AM 42.6517 -86.2458 256° West 364 419 20,000 -726 Descending Chicago Center
Mon 08:42:30 AM 42.6250 -86.3769 255° West 359 413 19,400 -919 Descending Chicago Center
Mon 08:43:32 AM 42.6022 -86.5064 257° West 354 407 18,100 -1,258 Descending Chicago Center
Mon 08:44:34 AM 42.5775 -86.6367 256° West 356 410 16,800 -2,081 Descending Chicago Center
Mon 08:45:36 AM 42.5450 -86.7903 254° West 355 409 13,800 -2,323 Descending Chicago Center
Mon 08:46:38 AM 42.5108 -86.9083 249° West 342 394 12,000 -1,536 Descending Chicago Center
Mon 08:47:41 AM 42.4778 -87.0292 250° West 341 392 10,600 -1,056 Descending Chicago Center
Mon 08:48:43 AM 42.4456 -87.1458 250° West 334 384 9,800 -581 Descending Chicago Center
Mon 08:49:45 AM 42.4053 -87.2311 237° Southwest 301 346 9,400 -387 Descending Chicago Center
Mon 08:50:47 AM 42.3089 -87.2447 186° South 295 339 9,000 -194 Descending Chicago Center
Mon 08:51:49 AM 42.2289 -87.2531 184° South 291 335 9,000  Level Chicago Center
Mon 08:52:51 AM 42.1511 -87.2600 184° South 282 325 9,000  Level Chicago Center
Mon 08:53:53 AM 42.0817 -87.2658 184° South 253 291 9,000  Level Chicago Center
Mon 08:54:55 AM 42.0186 -87.2300 157° South 259 298 9,000 -677 Level Chicago Center
Mon 08:55:57 AM 41.9831 -87.3169 241° Southwest 226 260 7,600 -968 Descending Chicago Center
Mon 08:56:59 AM 41.9831 -87.3983 270° West 218 251 7,000 -387 Descending Chicago Center
Mon 08:58:01 AM 41.9825 -87.4767 269° West 213 245 6,800 -891 Descending Chicago Center
Mon 08:59:07 AM 41.9833 -87.5739 271° West 219 252 5,100 -1,266 Descending Chicago Center
Mon 09:00:09 AM 41.9833 -87.6503 270° West 212 244 4,100 -968 Descending Chicago Center
Mon 09:01:11 AM 41.9828 -87.7147 269° West 186 214 3,100 -871 Descending Chicago Center
Mon 09:02:13 AM 41.9836 -87.7761 271° West 171 197 2,300 -726 Descending Chicago Center
Mon 09:03:15 AM 41.9836 -87.8281 270° West 151 174 1,600 -763 Descending Chicago Center
Mon 09:04:11 AM 41.9833 -87.8833 270° West 134 154 800 -857 Descending Chicago TRACON
Mon 09:06:00 AM 41.9667 -87.9000 217° Southwest  Level FlightAware Approximate

Login

Don't have an account? Register now (free) for customized features, flight alerts, and more!